Time;durP1;ratioP1;P1;durP2;ratioP2;P2;SDS_P1;SDS_P2;PMS_P1;PMS_P2;Temp;Humidity;BMP_temperature;BMP_pressure;BME280_temperature;BME280_humidity;BME280_pressure;Samples;Min_cycle;Max_cycle;Signal;HPM_P1;HPM_P2
2021/12/03 00:00:26;;;;;;;4.83;1.80;;;0.30;99.90;;;;;;6254691;22;20500;-85
2021/12/03 00:03:11;;;;;;;6.80;2.20;;;1.30;99.90;;;;;;6275611;22;20037;-85
2021/12/03 00:05:57;;;;;;;9.60;2.30;;;0.30;99.90;;;;;;6275784;22;20065;-86
2021/12/03 00:08:42;;;;;;;5.17;2.43;;;0.30;99.90;;;;;;6276139;22;20018;-85
2021/12/03 00:11:27;;;;;;;8.30;2.73;;;1.30;99.90;;;;;;6276014;22;20015;-85
2021/12/03 00:14:11;;;;;;;7.17;3.27;;;1.90;99.90;;;;;;6232903;22;20034;-85
2021/12/03 00:16:56;;;;;;;7.47;3.00;;;1.30;99.90;;;;;;6232564;22;20147;-86
2021/12/03 00:19:40;;;;;;;8.80;2.93;;;1.40;99.90;;;;;;6254445;22;20015;-85
2021/12/03 00:22:25;;;;;;;7.40;2.73;;;1.00;99.90;;;;;;6254356;22;20369;-86
2021/12/03 00:25:09;;;;;;;8.13;2.93;;;1.00;99.90;;;;;;6276701;22;20065;-85
2021/12/03 00:27:54;;;;;;;8.03;2.60;;;1.10;99.90;;;;;;6275864;22;20027;-85
2021/12/03 00:30:39;;;;;;;7.13;3.07;;;1.10;99.90;;;;;;6276007;22;20038;-85
2021/12/03 00:33:24;;;;;;;6.67;2.50;;;0.50;99.90;;;;;;6276956;22;20018;-85
2021/12/03 00:36:10;;;;;;;5.13;2.40;;;0.80;99.90;;;;;;6276341;22;20350;-85
2021/12/03 00:38:58;;;;;;;7.00;2.57;;;1.60;99.90;;;;;;6276932;22;20056;-85
2021/12/03 00:41:47;;;;;;;6.07;3.10;;;1.90;99.90;;;;;;6277044;22;20061;-85
2021/12/03 00:44:31;;;;;;;7.37;3.00;;;2.10;99.90;;;;;;6255132;22;20022;-85
2021/12/03 00:47:16;;;;;;;6.47;3.27;;;2.20;99.90;;;;;;6253599;22;20082;-85
2021/12/03 00:50:00;;;;;;;6.60;2.80;;;2.30;99.90;;;;;;6276415;22;20018;-86
2021/12/03 00:52:45;;;;;;;;;;;0.60;99.90;;;;;;6277578;22;20042;-85
2021/12/03 00:55:31;;;;;;;13.90;2.88;;;0.70;99.90;;;;;;6275888;22;19961;-85
2021/12/03 00:58:15;;;;;;;5.70;2.63;;;0.70;99.90;;;;;;6276264;22;20077;-85
2021/12/03 01:00:59;;;;;;;;;;;0.70;99.90;;;;;;6276092;22;20010;-85
2021/12/03 01:03:44;;;;;;;9.23;2.92;;;0.80;99.90;;;;;;6276798;22;19926;-85
2021/12/03 01:06:28;;;;;;;9.23;2.90;;;0.80;99.90;;;;;;6253729;22;20019;-85
2021/12/03 01:09:12;;;;;;;8.27;4.13;;;1.00;99.90;;;;;;6274926;22;20015;-85
2021/12/03 01:11:58;;;;;;;12.13;3.60;;;0.90;99.90;;;;;;6253835;22;20019;-85
2021/12/03 01:14:42;;;;;;;9.00;3.93;;;0.90;99.90;;;;;;6254002;22;20096;-85
2021/12/03 01:17:27;;;;;;;6.40;3.70;;;2.70;99.90;;;;;;6275125;22;20015;-84
2021/12/03 01:20:13;;;;;;;11.30;4.40;;;1.20;99.90;;;;;;6253203;22;20022;-85
2021/12/03 01:22:58;;;;;;;10.80;4.50;;;1.70;99.90;;;;;;6275372;22;20087;-85
2021/12/03 01:25:43;;;;;;;8.43;3.93;;;1.90;99.90;;;;;;6275530;22;20064;-84
2021/12/03 01:28:27;;;;;;;8.43;4.07;;;1.10;99.90;;;;;;6275031;22;20065;-84
2021/12/03 01:31:13;;;;;;;11.93;4.40;;;1.10;99.90;;;;;;6274748;22;20464;-85
2021/12/03 01:33:57;;;;;;;11.13;4.60;;;2.10;99.90;;;;;;6276578;22;20068;-85
2021/12/03 01:36:42;;;;;;;11.10;4.50;;;2.40;99.90;;;;;;6275327;22;20062;-84
2021/12/03 01:39:26;;;;;;;13.23;5.30;;;2.00;99.90;;;;;;6275905;22;20500;-85
2021/12/03 01:42:10;;;;;;;;;;;1.60;99.90;;;;;;6275180;22;20066;-85
2021/12/03 01:44:54;;;;;;;12.48;4.65;;;1.10;99.90;;;;;;6275154;22;19914;-84
2021/12/03 01:47:44;;;;;;;9.15;4.80;;;1.10;99.90;;;;;;6275312;22;20023;-85
2021/12/03 01:50:33;;;;;;;18.97;5.53;;;1.10;99.90;;;;;;6275854;22;20492;-84
2021/12/03 01:53:22;;;;;;;13.40;5.10;;;1.20;99.90;;;;;;6274588;22;20014;-85
2021/12/03 01:56:10;;;;;;;13.20;5.90;;;2.20;99.90;;;;;;6274989;22;20073;-85
2021/12/03 01:58:54;;;;;;;12.80;5.57;;;3.10;99.90;;;;;;6275075;22;20058;-84
2021/12/03 02:01:39;;;;;;;12.07;5.43;;;1.70;99.90;;;;;;6275135;22;20057;-85
2021/12/03 02:04:25;;;;;;;12.53;5.40;;;1.20;99.90;;;;;;6275772;22;20042;-84
2021/12/03 02:07:09;;;;;;;14.93;6.23;;;2.10;99.90;;;;;;6275940;22;20476;-85
2021/12/03 02:09:54;;;;;;;11.20;5.07;;;1.90;99.90;;;;;;6274888;22;20062;-84
2021/12/03 02:12:38;;;;;;;13.43;5.77;;;1.20;99.90;;;;;;6231970;22;20445;-84
2021/12/03 02:15:22;;;;;;;12.53;5.63;;;2.90;99.90;;;;;;6274355;22;20069;-84
2021/12/03 02:18:07;;;;;;;14.85;6.47;;;1.20;99.90;;;;;;6276252;22;20019;-85
2021/12/03 02:20:54;;;;;;;14.53;7.37;;;1.20;99.90;;;;;;6276157;22;20018;-84
2021/12/03 02:23:39;;;;;;;19.10;8.37;;;1.30;99.90;;;;;;6276322;22;20014;-84
2021/12/03 02:26:24;;;;;;;19.53;8.63;;;1.30;99.90;;;;;;6275152;22;20338;-85
2021/12/03 02:29:08;;;;;;;20.87;9.83;;;2.20;99.90;;;;;;6276053;22;20014;-85
2021/12/03 02:31:53;;;;;;;16.73;9.57;;;1.40;99.90;;;;;;6275984;22;20030;-84
2021/12/03 02:34:38;;;;;;;17.73;10.90;;;1.40;99.90;;;;;;6274522;22;20338;-85
2021/12/03 02:37:21;;;;;;;;;;;3.10;99.90;;;;;;6275843;22;20343;-84
2021/12/03 02:40:07;;;;;;;27.05;12.82;;;1.40;99.90;;;;;;6253091;22;19914;-84
2021/12/03 02:42:52;;;;;;;20.83;11.70;;;1.40;99.90;;;;;;6274761;22;20015;-84
2021/12/03 02:45:36;;;;;;;22.10;12.23;;;1.40;99.90;;;;;;6252454;22;20450;-84
2021/12/03 02:48:21;;;;;;;;;;;1.50;99.90;;;;;;6252969;22;20038;-84
2021/12/03 02:51:06;;;;;;;20.67;11.57;;;1.40;99.90;;;;;;6274813;22;19952;-84
2021/12/03 02:53:50;;;;;;;23.63;11.83;;;1.40;99.90;;;;;;6276072;22;20026;-84
2021/12/03 02:56:35;;;;;;;20.17;11.63;;;2.00;99.90;;;;;;6275361;22;20030;-84
2021/12/03 02:59:19;;;;;;;20.47;11.50;;;2.40;99.90;;;;;;6278726;22;20015;-84
2021/12/03 03:02:03;;;;;;;19.27;11.65;;;1.40;99.90;;;;;;6278156;22;20050;-84
2021/12/03 03:04:48;;;;;;;20.77;12.50;;;1.40;99.90;;;;;;6256368;22;20096;-84
2021/12/03 03:07:32;;;;;;;23.37;12.50;;;1.40;99.90;;;;;;6278632;22;20464;-84
2021/12/03 03:10:18;;;;;;;;;;;2.50;99.90;;;;;;6279542;22;20019;-86
2021/12/03 03:13:03;;;;;;;19.70;11.43;;;1.30;99.90;;;;;;6277967;22;19968;-85
2021/12/03 03:15:47;;;;;;;18.95;13.20;;;1.30;99.90;;;;;;6277829;22;20354;-85
2021/12/03 03:18:31;;;;;;;25.03;13.40;;;1.30;99.90;;;;;;6277440;22;20407;-84
2021/12/03 03:21:16;;;;;;;28.43;14.27;;;1.30;99.90;;;;;;6256161;22;20141;-84
2021/12/03 03:24:00;;;;;;;21.23;14.00;;;1.30;99.90;;;;;;6256422;22;20084;-85
2021/12/03 03:26:46;;;;;;;23.43;13.00;;;1.20;99.90;;;;;;6278861;22;20630;-85
2021/12/03 03:29:31;;;;;;;22.47;13.30;;;1.20;99.90;;;;;;6278592;22;20057;-84
2021/12/03 03:32:16;;;;;;;23.90;12.20;;;1.20;99.90;;;;;;6277981;22;20046;-84
2021/12/03 03:35:00;;;;;;;20.30;14.00;;;2.20;99.90;;;;;;6277954;22;20026;-85
2021/12/03 03:37:45;;;;;;;23.57;14.23;;;1.20;99.90;;;;;;6277315;22;20437;-85
2021/12/03 03:40:29;;;;;;;25.63;14.27;;;2.80;99.90;;;;;;6278553;22;20018;-85
2021/12/03 03:43:15;;;;;;;21.47;13.10;;;1.80;99.90;;;;;;6279207;22;20014;-85
2021/12/03 03:46:00;;;;;;;23.50;13.63;;;1.60;99.90;;;;;;6277998;22;20022;-84
2021/12/03 03:48:44;;;;;;;24.93;13.57;;;1.20;99.90;;;;;;6277288;22;20025;-84
2021/12/03 03:51:28;;;;;;;;;;;1.10;99.90;;;;;;6277669;22;20018;-85
2021/12/03 03:54:13;;;;;;;19.55;12.80;;;1.10;99.90;;;;;;6277735;22;19909;-85
2021/12/03 03:56:57;;;;;;;21.17;12.13;;;1.80;99.90;;;;;;6256155;22;20077;-85
2021/12/03 03:59:41;;;;;;;20.93;12.90;;;1.10;99.90;;;;;;6277230;22;20022;-84
2021/12/03 04:02:26;;;;;;;19.33;13.57;;;2.20;99.90;;;;;;6277246;22;20406;-85
2021/12/03 04:05:12;;;;;;;17.97;11.87;;;1.10;99.90;;;;;;6278933;22;20026;-84
2021/12/03 04:07:57;;;;;;;16.50;11.87;;;1.00;99.90;;;;;;6278820;22;20011;-85
2021/12/03 04:10:41;;;;;;;23.60;13.13;;;1.40;99.90;;;;;;6276659;22;20085;-85
2021/12/03 04:13:27;;;;;;;18.63;12.50;;;1.00;99.90;;;;;;6277027;22;20018;-86
2021/12/03 04:16:11;;;;;;;18.23;11.60;;;2.00;99.90;;;;;;6232904;22;20023;-85
2021/12/03 04:18:55;;;;;;;20.73;13.53;;;0.90;99.90;;;;;;6254451;22;20015;-85
2021/12/03 04:21:41;;;;;;;22.97;12.90;;;0.90;99.90;;;;;;6276717;22;20015;-84
2021/12/03 04:24:25;;;;;;;21.27;14.40;;;0.90;99.90;;;;;;6254461;22;20511;-84
2021/12/03 04:27:09;;;;;;;16.50;11.60;;;0.90;99.90;;;;;;6277220;22;20031;-85
2021/12/03 04:29:54;;;;;;;19.57;13.00;;;2.40;99.90;;;;;;6277136;22;20019;-84
2021/12/03 04:32:38;;;;;;;19.37;13.13;;;0.90;99.90;;;;;;6275323;22;20065;-85
2021/12/03 04:35:24;;;;;;;18.63;13.10;;;0.90;99.90;;;;;;6254204;22;20022;-85
2021/12/03 04:43:13;;;;;;;19.20;13.67;;;0.90;99.90;;;;;;6305867;22;20080;-84
2021/12/03 04:45:58;;;;;;;20.67;13.37;;;2.70;99.90;;;;;;6283622;22;20084;-84
2021/12/03 04:48:42;;;;;;;19.77;13.73;;;1.60;99.90;;;;;;6307480;22;20036;-84
2021/12/03 04:51:27;;;;;;;19.40;13.73;;;0.90;99.90;;;;;;6284251;22;20018;-84
2021/12/03 04:54:11;;;;;;;20.23;13.30;;;0.90;99.90;;;;;;6306732;22;20018;-84
2021/12/03 04:56:56;;;;;;;;;;;0.90;99.90;;;;;;6284032;22;20022;-86
2021/12/03 04:59:40;;;;;;;18.30;12.83;;;0.90;99.90;;;;;;6284044;22;20354;-84
2021/12/03 05:02:26;;;;;;;19.20;13.70;;;1.40;99.90;;;;;;6306879;22;20379;-84
2021/12/03 05:05:10;;;;;;;19.67;13.13;;;0.90;99.90;;;;;;6283698;22;20565;-84
2021/12/03 05:07:57;;;;;;;19.37;13.13;;;0.90;99.90;;;;;;6284172;22;20014;-83
2021/12/03 05:10:46;;;;;;;21.53;13.47;;;0.90;99.90;;;;;;6263155;22;20017;-84
2021/12/03 05:13:32;;;;;;;16.53;12.40;;;0.90;99.90;;;;;;6284133;22;20474;-84
2021/12/03 05:16:16;;;;;;;24.57;13.20;;;1.10;99.90;;;;;;6305866;22;20025;-85
2021/12/03 05:19:01;;;;;;;20.67;13.13;;;0.90;99.90;;;;;;6283376;22;20111;-84
2021/12/03 05:21:45;;;;;;;19.03;12.87;;;2.10;99.90;;;;;;6261636;22;20018;-84
2021/12/03 05:24:30;;;;;;;17.90;12.13;;;2.20;99.90;;;;;;6262293;22;20069;-84
2021/12/03 05:27:16;;;;;;;21.90;12.77;;;1.80;99.90;;;;;;6306233;22;20448;-84
2021/12/03 05:30:03;;;;;;;20.17;12.73;;;1.00;99.90;;;;;;6306354;22;20011;-84
2021/12/03 05:32:47;;;;;;;19.00;12.70;;;1.00;99.90;;;;;;6283787;22;20018;-84
2021/12/03 05:35:34;;;;;;;21.57;13.83;;;1.00;99.90;;;;;;6283835;22;20019;-84
2021/12/03 05:38:19;;;;;;;18.90;12.33;;;1.00;99.90;;;;;;6283379;22;20026;-84
2021/12/03 05:41:03;;;;;;;19.53;12.70;;;1.00;99.90;;;;;;6305635;22;20447;-84
2021/12/03 05:43:48;;;;;;;16.40;11.53;;;3.10;99.90;;;;;;6283968;22;20068;-84
2021/12/03 05:46:32;;;;;;;20.63;13.07;;;1.10;99.90;;;;;;6262160;22;20022;-84
2021/12/03 05:49:17;;;;;;;20.27;12.50;;;1.80;99.90;;;;;;6282874;22;20014;-83
2021/12/03 05:52:02;;;;;;;23.67;12.63;;;2.10;99.90;;;;;;6306689;22;20010;-85
2021/12/03 05:54:46;;;;;;;19.47;11.60;;;3.20;99.90;;;;;;6261934;22;20018;-84
2021/12/03 05:57:31;;;;;;;21.03;11.90;;;1.20;99.90;;;;;;6261941;22;20074;-85
2021/12/03 06:00:16;;;;;;;;;;;2.40;99.90;;;;;;6306484;22;20463;-85
2021/12/03 06:03:01;;;;;;;18.90;11.70;;;1.20;99.90;;;;;;6283572;22;19910;-85
2021/12/03 06:05:45;;;;;;;17.73;11.33;;;2.60;99.90;;;;;;6305751;22;20089;-85
2021/12/03 06:08:30;;;;;;;18.53;12.00;;;1.20;99.90;;;;;;6283133;22;20458;-85
2021/12/03 06:11:15;;;;;;;17.53;11.47;;;1.30;99.90;;;;;;6282834;22;20045;-85
2021/12/03 06:13:59;;;;;;;26.53;12.10;;;1.60;99.90;;;;;;6262125;22;20017;-85
2021/12/03 06:16:44;;;;;;;21.60;11.30;;;1.30;99.90;;;;;;6305968;22;20068;-85
2021/12/03 06:19:30;;;;;;;17.43;10.57;;;3.20;99.90;;;;;;6261022;22;20344;-85
2021/12/03 06:22:15;;;;;;;15.87;10.43;;;1.30;99.90;;;;;;6261149;22;20014;-85
2021/12/03 06:25:01;;;;;;;17.27;9.83;;;2.50;99.90;;;;;;6306662;22;20968;-85
2021/12/03 06:27:45;;;;;;;18.13;9.90;;;1.40;99.90;;;;;;6283390;22;20049;-85
2021/12/03 06:30:30;;;;;;;12.10;9.33;;;2.20;99.90;;;;;;6281843;22;20011;-85
2021/12/03 06:33:14;;;;;;;17.43;9.90;;;1.40;99.90;;;;;;6305195;22;20018;-85
2021/12/03 06:35:58;;;;;;;;;;;2.10;99.90;;;;;;6306785;22;20072;-85
2021/12/03 06:38:43;;;;;;;14.88;8.70;;;1.60;99.90;;;;;;6306644;22;19914;-85
2021/12/03 06:41:27;;;;;;;16.87;8.60;;;1.90;99.90;;;;;;6282446;22;20285;-85
2021/12/03 06:44:13;;;;;;;17.20;9.10;;;2.90;99.90;;;;;;6282718;22;20018;-85
2021/12/03 06:47:00;;;;;;;12.47;8.73;;;2.20;99.90;;;;;;6306139;22;20502;-84
2021/12/03 06:49:45;;;;;;;14.70;8.53;;;1.50;99.90;;;;;;6262208;22;20017;-85
2021/12/03 06:52:32;;;;;;;11.67;7.73;;;1.50;99.90;;;;;;6282734;22;20011;-85
2021/12/03 06:55:17;;;;;;;13.07;8.10;;;1.60;99.90;;;;;;6282681;22;20091;-87
2021/12/03 06:58:04;;;;;;;;;;;1.60;99.90;;;;;;6283774;22;20054;-85
2021/12/03 07:00:53;;;;;;;13.53;7.20;;;0.80;99.90;;;;;;6283287;22;19958;-86
2021/12/03 07:03:38;;;;;;;14.07;7.73;;;1.60;99.90;;;;;;6306337;22;20014;-85
2021/12/03 07:06:22;;;;;;;12.90;7.70;;;3.30;99.90;;;;;;6282626;22;20022;-85
2021/12/03 07:09:06;;;;;;;;;;;2.90;99.90;;;;;;6283670;22;20014;-85
2021/12/03 07:11:50;;;;;;;15.23;6.93;;;1.70;99.90;;;;;;6306342;22;20334;-85
2021/12/03 07:14:34;;;;;;;15.30;8.07;;;2.20;99.90;;;;;;6260159;22;20448;-85
2021/12/03 07:17:19;;;;;;;11.33;7.07;;;2.40;99.90;;;;;;6305176;22;20022;-85
2021/12/03 07:20:05;;;;;;;19.53;7.50;;;3.20;99.90;;;;;;6282909;22;20014;-85
2021/12/03 07:22:50;;;;;;;13.43;7.13;;;1.70;99.90;;;;;;6283706;22;20018;-83
2021/12/03 07:25:34;;;;;;;13.10;7.03;;;1.70;99.90;;;;;;6305360;22;20090;-85
2021/12/03 07:28:20;;;;;;;16.43;7.60;;;1.80;99.90;;;;;;6260796;22;20018;-86
2021/12/03 07:31:04;;;;;;;12.13;7.57;;;1.90;99.90;;;;;;6261407;22;20045;-85
2021/12/03 07:33:49;;;;;;;12.40;6.53;;;1.90;99.90;;;;;;6261438;22;20066;-84
2021/12/03 07:36:34;;;;;;;11.83;6.97;;;1.80;99.90;;;;;;6305423;22;20022;-85
2021/12/03 07:39:17;;;;;;;;;;;1.80;99.90;;;;;;6283039;22;20073;-86
2021/12/03 07:42:02;;;;;;;13.15;6.88;;;1.90;99.90;;;;;;6282868;22;19921;-85
2021/12/03 07:44:47;;;;;;;14.57;7.13;;;1.80;99.90;;;;;;6283925;22;20022;-86
2021/12/03 07:47:31;;;;;;;;;;;1.90;99.90;;;;;;6306778;22;20018;-85
2021/12/03 07:50:15;;;;;;;11.70;7.00;;;1.90;99.90;;;;;;6284257;22;19956;-87
2021/12/03 07:53:00;;;;;;;17.20;7.67;;;2.00;99.90;;;;;;6284562;22;20057;-84
2021/12/03 07:55:49;;;;;;;14.20;7.20;;;2.00;99.90;;;;;;6284865;22;20041;-85
2021/12/03 07:58:33;;;;;;;13.53;7.10;;;2.00;99.90;;;;;;6284265;22;20018;-85
2021/12/03 08:01:18;;;;;;;14.63;7.50;;;4.10;99.90;;;;;;6285079;22;20494;-87
2021/12/03 08:04:03;;;;;;;15.40;7.33;;;2.00;99.90;;;;;;6263380;22;20021;-86
2021/12/03 08:06:51;;;;;;;17.53;7.23;;;2.10;99.90;;;;;;6285183;22;20380;-84
2021/12/03 08:09:37;;;;;;;12.30;6.97;;;3.40;99.90;;;;;;6307323;22;20028;-86
2021/12/03 08:12:21;;;;;;;17.70;8.20;;;2.10;99.90;;;;;;6284026;22;20018;-86
2021/12/03 08:15:07;;;;;;;17.50;8.43;;;3.80;99.90;;;;;;6284403;22;20017;-85
2021/12/03 08:17:51;;;;;;;14.40;7.00;;;2.10;99.90;;;;;;6284645;22;20022;-84
2021/12/03 08:20:36;;;;;;;16.57;8.13;;;2.20;99.90;;;;;;6284071;22;20068;-85
2021/12/03 08:23:20;;;;;;;18.63;8.10;;;2.20;99.90;;;;;;6263235;22;20019;-84
2021/12/03 08:26:04;;;;;;;15.23;8.13;;;3.20;99.90;;;;;;6284564;22;20014;-84
2021/12/03 08:28:49;;;;;;;14.77;8.00;;;3.30;99.90;;;;;;6284792;22;20014;-85
2021/12/03 08:31:33;;;;;;;15.20;8.20;;;3.40;99.90;;;;;;6262348;22;20017;-85
2021/12/03 08:34:17;;;;;;;18.60;9.27;;;3.60;99.90;;;;;;6284727;22;20045;-84
2021/12/03 08:37:03;;;;;;;20.87;8.27;;;3.60;99.90;;;;;;6262954;22;20018;-84
2021/12/03 08:39:47;;;;;;;15.97;9.07;;;2.30;99.90;;;;;;6284074;22;20348;-85
2021/12/03 08:42:31;;;;;;;20.87;10.07;;;2.40;99.90;;;;;;6261799;22;20025;-85
2021/12/03 08:45:18;;;;;;;20.20;10.17;;;2.40;99.90;;;;;;6307570;22;20065;-85
2021/12/03 08:48:04;;;;;;;20.60;9.73;;;4.30;99.90;;;;;;6307455;22;20038;-85
2021/12/03 08:50:53;;;;;;;17.03;9.70;;;2.50;99.90;;;;;;6262513;22;20017;-84
2021/12/03 08:56:41;;;;;;;22.83;10.63;;;2.60;99.90;;;;;;6306497;22;20022;-84
2021/12/03 08:59:26;;;;;;;24.10;11.27;;;3.20;99.90;;;;;;6241298;22;20068;-85
2021/12/03 09:02:10;;;;;;;17.70;10.07;;;2.70;99.90;;;;;;6307624;22;20069;-84
2021/12/03 09:04:54;;;;;;;20.07;10.13;;;2.70;99.90;;;;;;6284242;22;20014;-85
2021/12/03 09:07:40;;;;;;;20.90;10.70;;;2.80;99.90;;;;;;6283562;22;20019;-83
2021/12/03 09:10:25;;;;;;;26.67;12.50;;;3.20;99.90;;;;;;6284212;22;20042;-84
2021/12/03 09:13:09;;;;;;;18.17;10.50;;;2.90;99.90;;;;;;6284059;22;20010;-85
2021/12/03 09:16:06;;;;;;;25.93;12.33;;;2.90;99.90;;;;;;6306862;22;20019;-84
2021/12/03 09:18:52;;;;;;;20.27;11.90;;;3.30;99.90;;;;;;6264352;22;20029;-84
2021/12/03 09:21:37;;;;;;;27.93;13.23;;;2.80;99.90;;;;;;6241069;22;20054;-85
2021/12/03 09:24:28;;;;;;;23.13;13.13;;;2.80;99.90;;;;;;6284082;22;20018;-84
2021/12/03 09:27:12;;;;;;;27.57;14.57;;;2.90;99.90;;;;;;6244208;22;20013;-85
2021/12/03 09:29:57;;;;;;;;;;;3.40;99.90;;;;;;6307903;22;20030;-85
2021/12/03 09:32:46;;;;;;;24.83;13.43;;;2.90;99.90;;;;;;6261646;22;20376;-85
2021/12/03 09:35:31;;;;;;;27.63;14.83;;;2.90;99.90;;;;;;6306838;22;20022;-86
2021/12/03 09:38:15;;;;;;;32.73;17.00;;;2.90;99.90;;;;;;6283927;22;20567;-84
2021/12/03 09:41:12;;;;;;;26.30;14.17;;;2.90;99.90;;;;;;6262202;22;20440;-84
2021/12/03 09:43:57;;;;;;;29.50;14.77;;;4.90;99.90;;;;;;6283539;22;20482;-84
2021/12/03 09:46:41;;;;;;;29.73;15.00;;;2.90;99.90;;;;;;6283144;22;20019;-85
2021/12/03 09:49:38;;;;;;;26.37;15.37;;;3.00;99.90;;;;;;6283683;22;20018;-84
2021/12/03 09:55:13;;;;;;;28.27;14.20;;;3.00;99.90;;;;;;6306979;22;20165;-84
2021/12/03 10:13:32;;;;;;;25.47;12.37;;;3.20;99.90;;;;;;6283815;22;20080;-85
2021/12/03 10:19:28;;;;;;;27.20;11.43;;;3.50;99.90;;;;;;6306695;22;20153;-85
2021/12/03 10:28:30;;;;;;;27.93;10.67;;;3.40;99.90;;;;;;6306771;22;20018;-84
2021/12/03 10:34:48;;;;;;;18.98;8.63;;;3.50;99.90;;;;;;6306844;22;20038;-85
2021/12/03 10:43:44;;;;;;;17.50;8.57;;;3.60;99.90;;;;;;6306846;22;20099;-84
2021/12/03 10:55:54;;;;;;;19.57;6.60;;;3.60;99.90;;;;;;6282753;22;20105;-85
2021/12/03 11:47:33;;;;;;;27.37;7.43;;;3.50;99.90;;;;;;6287196;22;20464;-82
2021/12/03 12:01:01;;;;;;;16.83;4.70;;;3.90;99.90;;;;;;6308278;22;20033;-82
2021/12/03 12:10:00;;;;;;;16.60;4.57;;;3.40;99.90;;;;;;6213227;23;20464;-83
2021/12/03 12:25:08;;;;;;;15.13;4.73;;;3.30;99.90;;;;;;6308399;22;20452;-83
2021/12/03 12:40:58;;;;;;;12.67;5.10;;;4.20;99.90;;;;;;6309718;22;20018;-88
2021/12/03 12:48:19;;;;;;;12.17;6.07;;;3.10;99.90;;;;;;6308816;22;20017;-86
2021/12/03 13:44:42;;;;;;;13.80;5.83;;;3.20;99.90;;;;;;6284036;22;20026;-84
2021/12/03 14:46:33;;;;;;;;;;;3.80;99.90;;;;;;6307235;22;20075;-86
2021/12/03 14:52:35;;;;;;;11.47;5.67;;;4.30;99.90;;;;;;6287172;22;20034;-88
2021/12/03 14:55:30;;;;;;;10.63;5.53;;;3.80;99.90;;;;;;6264692;22;20023;-84
2021/12/03 14:58:23;;;;;;;12.30;5.67;;;3.90;99.90;;;;;;6306719;22;20076;-87
2021/12/03 15:01:38;;;;;;;12.53;5.20;;;3.90;99.90;;;;;;6263696;22;20018;-84
2021/12/03 15:07:34;;;;;;;12.13;5.63;;;4.00;99.90;;;;;;6287446;22;20041;-83
2021/12/03 15:10:38;;;;;;;12.37;5.97;;;4.00;99.90;;;;;;6306225;22;20068;-82
2021/12/03 15:14:19;;;;;;;10.73;6.28;;;4.00;99.90;;;;;;6287498;22;20023;-83
2021/12/03 15:36:39;;;;;;;12.40;6.00;;;4.10;99.90;;;;;;6283000;22;20077;-84
2021/12/03 16:06:39;;;;;;;10.77;6.95;;;4.10;99.90;;;;;;6298937;22;20026;-83
2021/12/03 16:54:12;;;;;;;20.97;12.23;;;4.00;99.90;;;;;;6258105;22;20073;-85
2021/12/03 16:56:56;;;;;;;20.07;13.00;;;4.00;99.90;;;;;;6253941;22;20015;-87
2021/12/03 16:59:43;;;;;;;18.30;13.67;;;4.10;99.90;;;;;;6232280;22;20473;-83
2021/12/03 17:02:38;;;;;;;21.17;14.40;;;4.00;99.90;;;;;;6254458;22;20038;-83
2021/12/03 17:20:53;;;;;;;20.40;15.00;;;4.00;99.90;;;;;;6256541;22;20023;-84
2021/12/03 17:51:09;;;;;;;26.87;17.67;;;4.50;99.90;;;;;;6276035;22;20019;-83
2021/12/03 17:56:48;;;;;;;24.87;17.37;;;4.00;99.90;;;;;;6275875;22;20338;-82
2021/12/03 17:59:41;;;;;;;38.40;20.03;;;4.90;99.90;;;;;;6253745;22;20077;-83
2021/12/03 18:02:38;;;;;;;26.53;18.73;;;4.50;99.90;;;;;;6275303;22;20015;-81
2021/12/03 18:08:35;;;;;;;25.53;18.23;;;4.10;99.90;;;;;;6274919;22;20019;-83
2021/12/03 18:51:06;;;;;;;31.10;19.53;;;4.20;99.90;;;;;;6194109;23;20027;-85
2021/12/03 18:56:45;;;;;;;33.33;21.53;;;4.20;99.90;;;;;;6263135;22;20099;-82
2021/12/03 18:59:29;;;;;;;35.67;21.67;;;4.80;99.90;;;;;;6263373;22;20080;-83
2021/12/03 19:02:13;;;;;;;36.40;21.97;;;4.20;99.90;;;;;;6262030;22;20041;-83
2021/12/03 19:05:23;;;;;;;38.17;21.70;;;4.20;99.90;;;;;;6238976;22;20427;-84
2021/12/03 19:08:15;;;;;;;37.07;22.47;;;4.20;99.90;;;;;;6306201;22;20018;-83
2021/12/03 19:11:17;;;;;;;36.93;22.07;;;4.70;99.90;;;;;;6263937;22;20065;-83
2021/12/03 19:14:02;;;;;;;39.40;23.60;;;4.20;99.90;;;;;;6306520;22;20014;-84
2021/12/03 19:16:47;;;;;;;36.77;22.00;;;4.20;99.90;;;;;;6283652;22;20018;-84
2021/12/03 19:19:36;;;;;;;40.70;23.17;;;4.30;99.90;;;;;;6306903;22;20145;-83
2021/12/03 19:22:22;;;;;;;40.47;23.50;;;4.30;99.90;;;;;;6306781;22;20329;-83
2021/12/03 19:25:07;;;;;;;38.55;23.30;;;4.20;99.90;;;;;;6262213;22;20014;-83
2021/12/03 19:27:51;;;;;;;40.27;24.27;;;4.30;99.90;;;;;;6283883;22;20050;-88
2021/12/03 19:30:36;;;;;;;45.37;24.20;;;4.30;99.90;;;;;;6284205;22;20056;-83
2021/12/03 19:33:20;;;;;;;44.78;24.98;;;4.30;99.90;;;;;;6262060;22;20486;-83
2021/12/03 19:36:05;;;;;;;44.30;25.33;;;4.30;99.90;;;;;;6306238;22;20085;-83
2021/12/03 19:38:54;;;;;;;42.22;25.02;;;4.30;99.90;;;;;;6307176;22;20018;-83
2021/12/03 19:41:59;;;;;;;41.50;24.52;;;4.30;99.90;;;;;;6308872;22;20018;-83
2021/12/03 19:44:53;;;;;;;43.45;24.23;;;5.00;99.90;;;;;;6285358;22;20018;-83
2021/12/03 19:50:41;;;;;;;44.10;25.73;;;4.30;99.90;;;;;;6308736;22;20015;-83
2021/12/03 19:53:31;;;;;;;41.60;23.88;;;5.10;99.90;;;;;;6285620;22;20057;-85
2021/12/03 19:56:16;;;;;;;45.70;24.73;;;4.40;99.90;;;;;;6264494;22;20018;-83
2021/12/03 19:59:00;;;;;;;;;;;4.40;99.90;;;;;;6308787;22;20022;-84
2021/12/03 20:01:45;;;;;;;;;;;4.40;99.90;;;;;;6284929;22;20343;-86
2021/12/03 20:04:33;;;;;;;39.78;21.30;;;4.30;99.90;;;;;;6261622;22;19964;-90
2021/12/03 20:07:20;;;;;;;42.70;23.20;;;4.40;99.90;;;;;;6305889;22;20072;-87
2021/12/03 20:10:14;;;;;;;43.08;23.67;;;4.40;99.90;;;;;;6282376;22;20490;-84
2021/12/03 20:13:00;;;;;;;44.05;25.73;;;4.40;99.90;;;;;;6282630;22;20018;-85
2021/12/03 20:16:05;;;;;;;42.47;25.27;;;4.50;99.90;;;;;;6261471;22;20152;-85
2021/12/03 20:18:52;;;;;;;47.93;24.43;;;4.40;99.90;;;;;;6265372;22;20034;-84
2021/12/03 20:21:44;;;;;;;46.33;25.07;;;4.40;99.90;;;;;;6261539;22;20163;-85
2021/12/03 20:27:43;;;;;;;46.97;25.40;;;4.40;99.90;;;;;;6264805;22;20073;-85
2021/12/03 20:38:57;;;;;;;42.40;23.00;;;4.40;99.90;;;;;;6306847;22;20025;-85
2021/12/03 21:08:27;;;;;;;39.20;20.90;;;5.10;99.90;;;;;;6307221;22;20060;-85
2021/12/03 21:14:09;;;;;;;34.88;19.42;;;4.40;99.90;;;;;;6286305;22;20037;-88
2021/12/03 21:23:05;;;;;;;30.58;20.27;;;4.40;99.90;;;;;;6271158;22;20099;-84
2021/12/03 21:25:56;;;;;;;30.77;18.80;;;4.40;99.90;;;;;;6285782;22;20076;-84
2021/12/03 21:31:57;;;;;;;34.85;21.33;;;5.60;99.90;;;;;;6288771;22;20019;-85
2021/12/03 21:43:36;;;;;;;36.17;19.77;;;4.50;99.90;;;;;;6285037;22;20099;-85
2021/12/03 21:46:23;;;;;;;32.13;19.10;;;5.50;99.90;;;;;;6283790;22;20064;-85
2021/12/03 21:49:11;;;;;;;34.40;19.92;;;5.50;99.90;;;;;;6263039;22;20026;-88
2021/12/03 21:51:56;;;;;;;31.60;19.70;;;4.70;99.90;;;;;;6284459;22;20013;-84
2021/12/03 21:54:40;;;;;;;35.70;21.60;;;4.90;99.90;;;;;;6284181;22;20439;-85
2021/12/03 21:57:26;;;;;;;33.87;19.70;;;4.90;99.90;;;;;;6240644;22;20021;-86
2021/12/03 22:00:10;;;;;;;34.77;20.43;;;4.50;99.90;;;;;;6284363;22;20022;-89
2021/12/03 22:02:55;;;;;;;32.47;20.23;;;4.50;99.90;;;;;;6240973;22;20325;-84
2021/12/03 22:05:42;;;;;;;37.50;20.43;;;4.90;99.90;;;;;;6284267;22;20022;-85
2021/12/03 22:08:26;;;;;;;40.00;23.37;;;4.00;99.90;;;;;;6283550;22;20018;-87
2021/12/03 22:11:12;;;;;;;33.83;20.63;;;5.10;99.90;;;;;;6262772;22;20070;-88
2021/12/03 22:13:56;;;;;;;37.30;21.27;;;4.50;99.90;;;;;;6262678;22;20444;-85
2021/12/03 22:16:41;;;;;;;37.77;20.87;;;4.50;99.90;;;;;;6283879;22;20019;-84
2021/12/03 22:19:26;;;;;;;34.53;20.73;;;4.60;99.90;;;;;;6240576;22;20018;-85
2021/12/03 22:22:09;;;;;;;;;;;4.50;99.90;;;;;;6284596;22;20419;-85
2021/12/03 22:24:54;;;;;;;33.83;20.55;;;4.50;99.90;;;;;;6307144;22;20332;-84
2021/12/03 22:27:38;;;;;;;32.00;19.63;;;4.40;99.90;;;;;;6262253;22;20026;-84
2021/12/03 22:30:22;;;;;;;34.23;19.83;;;4.40;99.90;;;;;;6240533;22;20030;-85
2021/12/03 22:33:07;;;;;;;;;;;5.70;99.90;;;;;;6284445;22;20443;-85
2021/12/03 22:35:51;;;;;;;;;;;4.40;99.90;;;;;;6262555;22;19917;-84
2021/12/03 22:38:36;;;;;;;37.67;19.80;;;4.90;99.90;;;;;;6306500;22;19929;-84
2021/12/03 22:41:20;;;;;;;36.92;20.17;;;4.50;99.90;;;;;;6261702;22;20014;-85
2021/12/03 22:44:04;;;;;;;33.53;18.93;;;6.10;99.90;;;;;;6283706;22;20023;-84
2021/12/03 22:52:56;;;;;;;36.73;20.23;;;4.60;99.90;;;;;;6287386;22;20098;-84
2021/12/03 22:55:43;;;;;;;33.72;19.00;;;4.90;99.90;;;;;;6283326;22;20404;-84
2021/12/03 22:58:27;;;;;;;37.30;20.05;;;4.60;99.90;;;;;;6261952;22;20073;-84
2021/12/03 23:01:18;;;;;;;39.05;20.83;;;6.20;99.90;;;;;;6283758;22;20018;-84
2021/12/03 23:04:03;;;;;;;36.17;20.58;;;6.60;99.90;;;;;;6283786;22;20501;-85
2021/12/03 23:06:47;;;;;;;39.70;20.63;;;4.50;99.90;;;;;;6262294;22;20069;-85